Time;durP1;ratioP1;P1;durP2;ratioP2;P2;SDS_P1;SDS_P2;PMS_P1;PMS_P2;Temp;Humidity;BMP_temperature;BMP_pressure;BME280_temperature;BME280_humidity;BME280_pressure;Samples;Min_cycle;Max_cycle;Signal;HPM_P1;HPM_P2
2023/09/28 00:01:18;;;;;;;13.07;8.53;;;;;;;15.82;70.26;96433.88;4959289;28;20173;-67
2023/09/28 00:03:44;;;;;;;10.17;8.87;;;;;;;15.82;69.96;96438.34;4969740;28;20420;-68
2023/09/28 00:06:10;;;;;;;9.43;8.33;;;;;;;15.85;70.14;96439.00;4986504;28;20527;-68
2023/09/28 00:08:35;;;;;;;12.73;9.80;;;;;;;15.80;70.01;96441.09;4979343;28;20468;-67
2023/09/28 00:11:01;;;;;;;15.87;9.97;;;;;;;15.75;69.89;96444.97;4967115;28;20208;-67
2023/09/28 00:13:26;;;;;;;10.37;8.17;;;;;;;15.72;69.90;96438.06;4967152;28;20640;-68
2023/09/28 00:15:51;;;;;;;9.37;8.47;;;;;;;15.67;69.89;96442.78;4967006;28;20181;-68
2023/09/28 00:18:17;;;;;;;9.13;8.33;;;;;;;15.75;69.64;96443.16;4966889;28;20251;-68
2023/09/28 00:20:43;;;;;;;16.63;10.40;;;;;;;15.63;70.11;96439.47;4966821;28;20647;-68
2023/09/28 00:23:08;;;;;;;13.50;9.73;;;;;;;15.66;69.93;96441.06;4966982;28;20423;-68
2023/09/28 00:25:34;;;;;;;9.43;8.43;;;;;;;15.67;69.18;96445.44;4966591;28;20185;-68
2023/09/28 00:28:00;;;;;;;9.90;8.80;;;;;;;15.58;70.07;96440.72;4968844;28;20189;-68
2023/09/28 00:30:26;;;;;;;9.60;8.57;;;;;;;15.36;70.21;96442.06;4970549;28;20198;-68
2023/09/28 00:32:55;;;;;;;10.80;9.00;;;;;;;15.43;69.84;96432.81;4970655;28;20708;-68
2023/09/28 00:35:22;;;;;;;9.70;8.60;;;;;;;15.52;69.76;96431.38;4970735;28;20951;-68
2023/09/28 00:37:51;;;;;;;13.53;9.60;;;;;;;15.49;69.35;96433.34;4970407;28;20492;-68
2023/09/28 00:40:31;;;;;;;11.63;8.77;;;;;;;15.51;69.82;96439.41;4970742;28;20886;-68
2023/09/28 00:42:58;;;;;;;9.80;7.93;;;;;;;15.45;69.75;96430.91;4970927;28;20497;-68
2023/09/28 00:45:25;;;;;;;10.00;8.53;;;;;;;15.46;69.40;96431.75;4970895;28;20463;-68
2023/09/28 00:47:53;;;;;;;11.10;9.13;;;;;;;15.33;69.84;96431.69;4970199;28;20433;-68
2023/09/28 00:50:20;;;;;;;10.47;9.47;;;;;;;15.37;70.06;96433.19;4970649;28;20815;-68
2023/09/28 00:52:51;;;;;;;25.53;11.33;;;;;;;15.29;70.14;96424.88;4970623;28;20440;-68
2023/09/28 00:55:19;;;;;;;15.67;9.23;;;;;;;15.34;70.00;96433.38;4970646;28;20979;-68
2023/09/28 00:57:46;;;;;;;9.57;8.57;;;;;;;15.19;70.47;96427.25;4969791;28;20939;-68
2023/09/28 01:00:18;;;;;;;10.23;9.00;;;;;;;15.18;70.33;96420.25;4970117;28;20490;-68
2023/09/28 01:02:51;;;;;;;11.03;9.60;;;;;;;15.18;70.39;96422.91;4970126;28;20421;-68
2023/09/28 01:05:48;;;;;;;13.07;9.07;;;;;;;15.24;69.90;96424.31;4970067;28;20507;-68
2023/09/28 01:08:15;;;;;;;10.57;8.03;;;;;;;15.16;70.16;96431.88;4969103;28;20499;-68
2023/09/28 01:10:41;;;;;;;9.77;8.77;;;;;;;15.14;70.25;96425.81;4969815;28;20626;-68
2023/09/28 01:13:11;;;;;;;16.17;9.47;;;;;;;14.98;70.71;96429.41;4969985;28;20448;-68
2023/09/28 01:15:41;;;;;;;29.50;11.57;;;;;;;14.94;70.74;96432.34;4969543;28;20413;-68
2023/09/28 01:18:11;;;;;;;43.47;12.00;;;;;;;15.02;70.73;96433.59;4969642;28;20436;-68
2023/09/28 01:20:37;;;;;;;23.47;11.30;;;;;;;15.08;70.16;96440.28;4969790;28;20421;-68
2023/09/28 01:23:04;;;;;;;55.07;13.93;;;;;;;15.08;70.24;96436.78;4969938;28;20409;-67
2023/09/28 01:25:30;;;;;;;14.93;9.40;;;;;;;14.98;70.41;96432.06;4969298;28;20417;-67
2023/09/28 01:27:55;;;;;;;29.23;10.80;;;;;;;14.98;70.77;96433.88;4969064;28;20444;-67
2023/09/28 01:30:20;;;;;;;20.37;11.90;;;;;;;15.01;70.37;96445.09;4969407;28;20284;-66
2023/09/28 01:32:46;;;;;;;10.80;9.70;;;;;;;14.95;70.12;96453.41;4969377;28;20169;-68
2023/09/28 01:35:12;;;;;;;11.00;8.87;;;;;;;14.94;70.33;96450.84;4969574;28;20658;-68
2023/09/28 01:38:03;;;;;;;12.93;8.60;;;;;;;14.89;70.47;96453.75;4969047;28;20174;-67
2023/09/28 01:40:29;;;;;;;15.07;10.83;;;;;;;14.75;70.87;96451.94;4968883;28;20220;-68
2023/09/28 01:42:55;;;;;;;11.30;10.20;;;;;;;14.97;69.82;96450.66;4969654;28;20931;-68
2023/09/28 01:45:20;;;;;;;16.33;9.27;;;;;;;14.93;69.76;96450.00;4969248;28;20170;-68
2023/09/28 01:47:46;;;;;;;10.17;9.03;;;;;;;14.88;69.90;96446.78;4968772;28;20285;-68
2023/09/28 01:50:11;;;;;;;10.57;9.60;;;;;;;14.81;70.11;96445.44;4966653;28;20238;-68
2023/09/28 01:52:36;;;;;;;15.63;9.47;;;;;;;14.82;70.04;96445.34;4963712;28;20177;-68
2023/09/28 01:55:02;;;;;;;14.90;9.23;;;;;;;14.76;70.44;96447.50;4969323;28;20169;-68
2023/09/28 01:57:28;;;;;;;10.43;9.00;;;;;;;14.72;70.30;96451.28;4968973;28;20189;-68
2023/09/28 01:59:53;;;;;;;11.60;9.80;;;;;;;14.70;70.37;96446.09;4969165;28;20193;-68
2023/09/28 02:02:20;;;;;;;14.33;10.73;;;;;;;14.63;70.84;96455.31;4969283;28;20719;-68
2023/09/28 02:04:46;;;;;;;37.97;12.30;;;;;;;14.62;70.80;96443.03;4979967;28;20177;-67
2023/09/28 02:07:11;;;;;;;21.70;10.90;;;;;;;14.65;70.62;96434.09;4988144;28;20419;-68
2023/09/28 02:09:37;;;;;;;11.70;10.53;;;;;;;14.50;70.68;96441.94;4988399;28;20193;-68
2023/09/28 02:12:03;;;;;;;10.03;8.80;;;;;;;14.45;70.84;96443.16;4988291;28;20761;-68
2023/09/28 02:14:29;;;;;;;9.90;8.83;;;;;;;14.27;71.14;96448.56;4988185;28;20177;-68
2023/09/28 02:16:55;;;;;;;9.70;8.70;;;;;;;14.30;70.89;96448.41;4987840;28;20189;-68
2023/09/28 02:19:22;;;;;;;9.73;8.83;;;;;;;14.16;71.21;96451.81;4988139;28;20185;-68
2023/09/28 02:21:47;;;;;;;10.63;9.53;;;;;;;14.07;71.30;96446.22;4986896;28;20431;-68
2023/09/28 02:24:12;;;;;;;10.00;9.00;;;;;;;13.79;72.17;96447.78;4988377;28;20416;-68
2023/09/28 02:26:38;;;;;;;16.27;9.47;;;;;;;13.84;72.16;96458.06;4988546;28;21081;-68
2023/09/28 02:29:04;;;;;;;10.90;9.10;;;;;;;13.94;71.39;96457.47;4987941;28;20239;-68
2023/09/28 02:31:31;;;;;;;10.27;9.00;;;;;;;13.86;71.68;96450.94;4988259;28;20168;-68
2023/09/28 02:33:56;;;;;;;10.37;8.77;;;;;;;14.05;71.43;96448.09;4987973;28;20173;-68
2023/09/28 02:36:22;;;;;;;9.63;8.60;;;;;;;14.11;70.91;96451.25;4987932;28;20419;-67
2023/09/28 02:38:47;;;;;;;10.20;8.80;;;;;;;14.09;70.93;96458.38;4987429;28;20197;-68
2023/09/28 02:41:17;;;;;;;9.63;8.60;;;;;;;14.22;70.23;96460.31;4988419;28;20309;-68
2023/09/28 02:43:42;;;;;;;10.10;8.93;;;;;;;14.12;70.66;96460.84;4992101;28;20917;-68
2023/09/28 02:46:08;;;;;;;9.93;8.77;;;;;;;14.17;70.22;96460.59;4988848;28;20500;-68
2023/09/28 02:48:34;;;;;;;9.00;8.20;;;;;;;14.10;70.63;96465.38;4980869;28;20204;-68
2023/09/28 02:51:00;;;;;;;9.60;8.27;;;;;;;14.07;70.22;96457.63;4968174;28;20764;-68
2023/09/28 02:53:26;;;;;;;9.50;8.50;;;;;;;14.09;70.71;96463.66;4968595;28;20230;-67
2023/09/28 02:55:52;;;;;;;10.10;8.90;;;;;;;14.10;70.49;96465.38;4969312;28;20424;-68
2023/09/28 02:58:18;;;;;;;9.73;8.70;;;;;;;14.14;70.27;96468.69;4968629;28;20440;-67
2023/09/28 03:00:43;;;;;;;8.77;7.77;;;;;;;14.21;69.91;96464.75;4970713;28;20180;-68
2023/09/28 03:03:09;;;;;;;10.10;8.70;;;;;;;14.17;70.22;96472.03;4968570;28;21174;-68
2023/09/28 03:05:38;;;;;;;9.50;8.50;;;;;;;14.18;70.02;96470.22;4967443;28;20201;-68
2023/09/28 03:08:04;;;;;;;9.10;8.10;;;;;;;14.16;69.81;96465.03;4967841;28;20481;-67
2023/09/28 03:10:31;;;;;;;11.37;10.20;;;;;;;14.03;70.59;96474.59;4967742;28;20548;-67
2023/09/28 03:12:57;;;;;;;8.80;7.93;;;;;;;14.10;70.22;96469.78;4967787;28;20425;-68
2023/09/28 03:15:22;;;;;;;14.70;8.40;;;;;;;13.97;70.52;96472.28;4968203;28;20834;-67
2023/09/28 03:17:48;;;;;;;12.23;9.30;;;;;;;13.79;71.36;96474.16;4967246;28;20169;-68
2023/09/28 03:20:15;;;;;;;9.20;7.80;;;;;;;13.77;71.26;96470.75;4966811;28;20184;-68
2023/09/28 03:22:44;;;;;;;9.67;7.23;;;;;;;13.78;71.30;96477.75;4968294;28;20173;-68
2023/09/28 03:25:16;;;;;;;15.30;8.53;;;;;;;13.86;70.97;96479.94;4967873;28;20409;-66
2023/09/28 03:27:42;;;;;;;9.70;7.67;;;;;;;13.67;71.29;96473.03;4967595;28;20423;-68
2023/09/28 03:30:09;;;;;;;13.33;8.90;;;;;;;13.67;71.47;96478.31;4967782;28;20473;-68
2023/09/28 03:32:36;;;;;;;8.67;7.87;;;;;;;13.69;71.39;96481.72;4967903;28;20408;-66
2023/09/28 03:35:03;;;;;;;9.17;8.20;;;;;;;13.69;70.83;96480.88;4967509;28;20507;-68
2023/09/28 03:37:29;;;;;;;11.53;7.70;;;;;;;13.65;71.29;96480.19;4965777;28;20421;-68
2023/09/28 03:39:56;;;;;;;10.30;7.63;;;;;;;13.74;70.59;96478.84;4966624;28;20441;-68
2023/09/28 03:42:22;;;;;;;12.20;9.13;;;;;;;13.76;71.17;96480.44;4967423;28;20575;-68
2023/09/28 03:44:47;;;;;;;12.57;9.67;;;;;;;13.78;70.55;96485.66;4967503;28;20412;-68
2023/09/28 03:47:12;;;;;;;10.13;8.53;;;;;;;13.87;70.34;96481.66;4967293;28;20630;-67
2023/09/28 03:49:38;;;;;;;8.83;8.03;;;;;;;13.82;70.62;96486.31;4966990;28;20372;-66
2023/09/28 03:52:03;;;;;;;9.37;8.47;;;;;;;13.75;70.72;96485.84;4967328;28;20173;-69
2023/09/28 03:54:29;;;;;;;8.60;7.80;;;;;;;13.67;71.27;96488.88;4967336;28;20174;-68
2023/09/28 03:56:55;;;;;;;9.33;8.40;;;;;;;13.74;70.86;96481.47;4965484;28;20193;-68
2023/09/28 03:59:20;;;;;;;7.80;7.10;;;;;;;13.70;70.61;96480.81;4967122;28;20193;-67
2023/09/28 04:01:46;;;;;;;9.17;7.90;;;;;;;13.62;70.64;96480.34;4967957;28;20409;-67
2023/09/28 04:04:11;;;;;;;12.00;8.17;;;;;;;13.67;71.16;96482.75;4975494;28;20176;-68
2023/09/28 04:06:37;;;;;;;16.87;8.47;;;;;;;13.65;70.99;96485.47;4971003;28;20173;-67
2023/09/28 04:09:04;;;;;;;11.93;8.80;;;;;;;13.76;70.27;96484.88;4971206;28;20723;-68
2023/09/28 04:11:29;;;;;;;12.47;8.60;;;;;;;13.91;69.92;96488.44;4971640;28;20596;-68
2023/09/28 04:13:55;;;;;;;7.87;7.07;;;;;;;13.80;70.08;96482.94;4971483;28;20420;-68
2023/09/28 04:16:20;;;;;;;10.40;8.57;;;;;;;13.70;70.45;96480.81;4971161;28;20174;-67
2023/09/28 04:18:45;;;;;;;12.83;9.20;;;;;;;13.85;69.65;96487.00;4971235;28;20296;-69
2023/09/28 04:21:11;;;;;;;14.00;8.50;;;;;;;13.85;69.82;96483.53;4971222;28;20255;-68
2023/09/28 04:23:36;;;;;;;13.27;8.17;;;;;;;13.87;69.39;96493.06;4971022;28;20181;-68
2023/09/28 04:26:02;;;;;;;9.30;7.83;;;;;;;13.73;69.99;96501.72;4970573;28;20322;-68
2023/09/28 04:28:27;;;;;;;9.53;8.53;;;;;;;13.59;70.64;96490.25;4970035;28;20189;-68
2023/09/28 04:30:52;;;;;;;9.80;7.50;;;;;;;13.63;70.12;96495.25;4969713;28;20170;-68
2023/09/28 04:33:18;;;;;;;9.80;7.70;;;;;;;13.60;70.50;96497.19;4970417;28;20178;-68
2023/09/28 04:35:43;;;;;;;14.47;8.63;;;;;;;13.63;70.22;96497.91;4965409;28;20186;-67
2023/09/28 04:38:08;;;;;;;16.40;9.17;;;;;;;13.74;69.83;96499.94;4967924;28;20244;-68
2023/09/28 04:40:34;;;;;;;9.70;8.03;;;;;;;13.59;70.40;96491.09;4968466;28;20170;-68
2023/09/28 04:42:59;;;;;;;15.77;9.23;;;;;;;13.59;70.18;96493.72;4968561;28;20916;-67
2023/09/28 04:45:25;;;;;;;12.70;10.10;;;;;;;13.72;69.79;96492.13;4966586;28;20744;-67
2023/09/28 04:47:50;;;;;;;10.50;7.90;;;;;;;13.65;69.91;96484.63;4967996;28;20177;-67
2023/09/28 04:50:16;;;;;;;10.90;8.10;;;;;;;13.63;70.29;96489.13;4968612;28;20549;-67
2023/09/28 04:52:43;;;;;;;21.13;8.40;;;;;;;13.76;69.69;96493.63;4967312;28;20173;-69
2023/09/28 04:55:10;;;;;;;22.10;9.63;;;;;;;13.68;69.90;96487.94;4967764;28;20185;-68
2023/09/28 04:57:36;;;;;;;12.50;7.93;;;;;;;13.67;69.61;96491.50;4967132;28;20506;-67
2023/09/28 05:00:01;;;;;;;48.20;12.57;;;;;;;13.64;69.84;96493.47;4967734;28;20413;-68
2023/09/28 05:02:27;;;;;;;14.30;8.80;;;;;;;13.59;69.96;96500.78;4968542;28;20427;-70
2023/09/28 05:04:52;;;;;;;16.70;8.60;;;;;;;13.56;70.21;96496.53;4973206;28;20537;-70
2023/09/28 05:07:18;;;;;;;12.20;8.77;;;;;;;13.61;70.08;96498.91;4967873;28;20197;-69
2023/09/28 05:09:44;;;;;;;49.13;12.37;;;;;;;13.58;70.15;96505.19;4967875;28;20213;-73
2023/09/28 05:12:10;;;;;;;29.93;9.80;;;;;;;13.65;69.69;96511.81;4968986;28;20603;-71
2023/09/28 05:14:35;;;;;;;15.93;9.27;;;;;;;13.65;69.53;96510.97;4970009;28;20514;-71
2023/09/28 05:17:01;;;;;;;17.30;8.27;;;;;;;13.63;69.88;96510.22;4968133;28;20181;-72
2023/09/28 05:19:26;;;;;;;18.23;8.20;;;;;;;13.67;69.79;96515.22;4969291;28;20201;-72
2023/09/28 05:21:52;;;;;;;13.43;9.40;;;;;;;13.83;68.90;96509.13;4968491;28;20183;-73
2023/09/28 05:24:17;;;;;;;12.40;8.90;;;;;;;14.14;68.20;96508.28;4968078;28;20181;-72
2023/09/28 05:26:43;;;;;;;17.07;9.60;;;;;;;14.37;67.15;96512.25;4967912;28;20208;-72
2023/09/28 05:29:08;;;;;;;13.93;8.43;;;;;;;14.68;66.11;96495.50;4968506;28;20213;-72
2023/09/28 05:31:33;;;;;;;12.87;8.80;;;;;;;15.04;64.75;96499.53;4967627;28;20178;-72
2023/09/28 05:33:59;;;;;;;14.60;7.63;;;;;;;15.53;63.32;96504.47;4968171;28;20572;-71
2023/09/28 05:36:24;;;;;;;16.87;8.43;;;;;;;15.77;61.75;96509.22;4967168;28;20220;-71
2023/09/28 05:38:50;;;;;;;16.97;8.93;;;;;;;15.21;63.37;96507.31;4962074;28;20193;-72
2023/09/28 05:41:15;;;;;;;15.33;9.60;;;;;;;14.68;65.22;96518.44;4968507;28;20192;-71
2023/09/28 05:43:41;;;;;;;23.43;9.57;;;;;;;14.34;66.70;96504.53;4960063;28;20174;-72
2023/09/28 05:46:09;;;;;;;40.63;13.10;;;;;;;14.27;67.36;96513.69;4967343;28;20184;-72
2023/09/28 05:48:34;;;;;;;23.63;9.57;;;;;;;14.49;66.73;96521.25;4968145;28;20316;-72
2023/09/28 05:51:00;;;;;;;15.53;8.20;;;;;;;14.38;66.98;96520.06;4968068;28;20987;-70
2023/09/28 05:53:25;;;;;;;10.93;7.90;;;;;;;14.71;72.60;96520.88;4968287;28;20173;-72
2023/09/28 05:55:51;;;;;;;20.50;8.30;;;;;;;15.70;69.91;96521.09;4967347;28;20689;-72
2023/09/28 05:58:17;;;;;;;18.47;7.73;;;;;;;16.11;67.66;96528.25;4967401;28;20792;-72
2023/09/28 06:00:42;;;;;;;19.23;8.90;;;;;;;15.45;64.07;96525.28;4967838;28;20475;-72
2023/09/28 06:03:07;;;;;;;18.73;8.90;;;;;;;15.07;64.54;96535.50;4967060;28;20173;-72
2023/09/28 06:05:33;;;;;;;18.43;10.07;;;;;;;15.15;64.41;96523.53;4970436;28;20208;-72
2023/09/28 06:07:59;;;;;;;12.47;9.07;;;;;;;14.99;64.80;96536.81;4966587;28;20236;-70
2023/09/28 06:10:26;;;;;;;13.63;7.87;;;;;;;14.74;65.80;96541.84;4966469;28;20205;-70
2023/09/28 06:12:52;;;;;;;10.13;7.97;;;;;;;14.68;66.27;96540.41;4967186;28;20445;-71
2023/09/28 06:15:18;;;;;;;11.70;9.17;;;;;;;14.52;67.12;96544.84;4966755;28;20456;-71
2023/09/28 06:17:43;;;;;;;9.13;7.83;;;;;;;14.51;67.16;96545.78;4966273;28;20180;-72
2023/09/28 06:20:09;;;;;;;21.03;10.27;;;;;;;14.64;67.17;96551.25;4966328;28;20173;-71
2023/09/28 06:22:34;;;;;;;11.57;7.87;;;;;;;14.47;67.25;96558.31;4966690;28;20205;-71
2023/09/28 06:24:59;;;;;;;14.10;8.97;;;;;;;14.61;67.10;96565.47;4965824;28;20170;-72
2023/09/28 06:27:26;;;;;;;13.80;9.70;;;;;;;14.48;67.85;96561.78;4966660;28;20166;-71
2023/09/28 06:29:53;;;;;;;15.30;8.80;;;;;;;14.72;67.23;96557.78;4966062;28;20265;-71
2023/09/28 06:32:21;;;;;;;16.07;9.10;;;;;;;14.71;67.28;96563.16;4966536;28;20409;-71
2023/09/28 06:34:46;;;;;;;15.63;9.27;;;;;;;14.81;67.15;96564.31;4966754;28;20421;-71
2023/09/28 06:37:11;;;;;;;45.60;13.03;;;;;;;14.79;67.26;96574.16;4966861;28;20807;-72
2023/09/28 06:39:37;;;;;;;29.87;10.87;;;;;;;14.99;66.49;96573.81;4967126;28;20220;-71
2023/09/28 06:42:04;;;;;;;18.30;10.17;;;;;;;15.41;65.18;96568.72;4969043;28;20177;-72
2023/09/28 06:44:30;;;;;;;35.40;11.13;;;;;;;15.78;63.79;96572.63;4968732;28;20201;-71
2023/09/28 06:46:57;;;;;;;28.93;10.23;;;;;;;15.85;63.67;96558.09;4968866;28;20451;-70
2023/09/28 06:49:22;;;;;;;11.57;10.10;;;;;;;16.35;62.07;96574.34;4968543;28;21075;-71
2023/09/28 06:51:49;;;;;;;33.17;11.97;;;;;;;16.80;60.62;96574.16;4968414;28;20508;-71
2023/09/28 06:54:16;;;;;;;13.77;8.87;;;;;;;17.46;58.58;96573.19;4968563;28;20199;-71
2023/09/28 06:56:42;;;;;;;12.17;9.63;;;;;;;17.28;59.28;96571.81;4968248;28;20429;-71
2023/09/28 06:59:07;;;;;;;13.10;9.50;;;;;;;17.42;59.02;96570.88;4968282;28;20548;-71
2023/09/28 07:01:33;;;;;;;22.90;9.70;;;;;;;17.75;57.97;96562.38;4968483;28;20545;-71
2023/09/28 07:03:59;;;;;;;11.57;10.37;;;;;;;18.32;56.30;96556.53;4968551;28;20284;-71
2023/09/28 07:06:24;;;;;;;9.63;8.40;;;;;;;19.53;53.29;96551.94;4969184;28;20169;-72
2023/09/28 07:08:50;;;;;;;12.87;9.03;;;;;;;20.65;50.27;96547.59;4967942;28;20201;-71
2023/09/28 07:11:15;;;;;;;12.43;8.57;;;;;;;21.23;48.68;96542.72;4968053;28;20201;-70
2023/09/28 07:13:41;;;;;;;12.57;10.00;;;;;;;20.28;50.97;96546.06;4967887;28;20197;-71
2023/09/28 07:16:07;;;;;;;13.50;10.30;;;;;;;20.50;50.77;96545.19;4967655;28;20184;-70
2023/09/28 07:18:33;;;;;;;17.47;10.23;;;;;;;20.54;51.15;96550.25;4967929;28;20702;-71
2023/09/28 07:20:59;;;;;;;13.67;10.10;;;;;;;20.50;51.19;96545.19;4968348;28;20864;-71
2023/09/28 07:23:25;;;;;;;16.80;9.70;;;;;;;20.18;52.35;96553.09;4968723;28;20413;-70
2023/09/28 07:25:51;;;;;;;19.20;11.47;;;;;;;21.22;50.24;96548.19;4968998;28;20264;-71
2023/09/28 07:28:17;;;;;;;18.60;10.70;;;;;;;21.51;49.60;96537.72;4968125;28;20279;-71
2023/09/28 07:30:42;;;;;;;12.80;10.30;;;;;;;21.45;50.08;96539.13;4960437;28;20955;-70
2023/09/28 07:33:07;;;;;;;11.27;10.17;;;;;;;21.77;49.42;96535.47;4968355;28;20174;-70
2023/09/28 07:35:33;;;;;;;13.80;11.47;;;;;;;21.14;50.88;96549.69;4959820;28;20169;-71
2023/09/28 07:37:59;;;;;;;12.93;11.00;;;;;;;20.39;53.11;96550.53;4967225;28;20972;-70
2023/09/28 07:40:27;;;;;;;15.23;11.07;;;;;;;20.00;54.79;96554.56;4968149;28;20508;-71
2023/09/28 07:42:52;;;;;;;17.77;11.57;;;;;;;19.46;56.49;96564.03;4968007;28;20166;-71
2023/09/28 07:45:18;;;;;;;14.63;11.90;;;;;;;19.30;57.04;96564.38;4967600;28;20915;-71
2023/09/28 07:47:44;;;;;;;18.23;11.37;;;;;;;19.18;57.58;96568.84;4967343;28;20189;-72
2023/09/28 07:50:14;;;;;;;18.23;13.43;;;;;;;19.48;56.98;96579.91;4967386;28;20228;-71
2023/09/28 07:52:43;;;;;;;14.03;12.03;;;;;;;19.44;57.30;96581.94;4967730;28;20471;-71
2023/09/28 07:55:10;;;;;;;18.20;13.03;;;;;;;20.09;55.72;96581.31;4959820;28;20410;-69
2023/09/28 07:57:36;;;;;;;16.03;11.60;;;;;;;21.21;52.82;96575.84;4967179;28;20420;-70
2023/09/28 08:00:03;;;;;;;17.17;11.30;;;;;;;21.80;50.80;96577.09;4967891;28;20409;-72
2023/09/28 08:02:28;;;;;;;13.10;10.00;;;;;;;22.45;49.17;96570.53;4967752;28;20540;-72
2023/09/28 08:04:53;;;;;;;17.93;12.53;;;;;;;22.99;47.91;96565.72;4979346;28;20408;-72
2023/09/28 08:07:19;;;;;;;23.63;12.50;;;;;;;23.27;47.36;96565.81;4987302;28;20188;-69
2023/09/28 08:09:47;;;;;;;12.00;10.13;;;;;;;23.42;46.60;96565.25;4986721;28;20204;-71
2023/09/28 08:12:13;;;;;;;11.67;10.57;;;;;;;22.72;48.52;96569.84;4986711;28;20192;-70
2023/09/28 08:14:38;;;;;;;26.43;12.20;;;;;;;22.11;50.06;96576.16;4987077;28;20420;-70
2023/09/28 08:17:04;;;;;;;12.37;10.97;;;;;;;22.65;49.48;96565.19;4986565;28;20447;-71
2023/09/28 08:19:29;;;;;;;16.30;10.90;;;;;;;22.31;50.31;96568.22;4986311;28;20220;-69
2023/09/28 08:21:55;;;;;;;13.63;11.00;;;;;;;21.93;51.47;96585.78;4987259;28;20177;-71
2023/09/28 08:24:20;;;;;;;12.37;10.90;;;;;;;22.14;50.83;96583.91;4987102;28;20192;-70
2023/09/28 08:26:46;;;;;;;12.70;10.57;;;;;;;21.25;53.53;96588.81;4986673;28;20184;-71
2023/09/28 08:29:12;;;;;;;13.33;11.93;;;;;;;21.04;54.20;96595.94;4987042;28;20207;-69
2023/09/28 08:31:37;;;;;;;13.53;12.17;;;;;;;20.81;54.45;96601.38;4987163;28;20632;-70
2023/09/28 08:34:03;;;;;;;14.70;12.03;;;;;;;20.38;55.52;96601.28;4987151;28;20511;-70
2023/09/28 08:36:29;;;;;;;13.90;12.60;;;;;;;20.32;55.61;96601.78;4987311;28;20262;-69
2023/09/28 08:38:56;;;;;;;13.43;11.93;;;;;;;20.42;55.31;96605.41;4976972;28;20207;-69
2023/09/28 08:41:44;;;;;;;12.33;10.67;;;;;;;20.76;54.58;96608.03;4959738;28;20429;-71
2023/09/28 08:44:11;;;;;;;15.50;12.87;;;;;;;20.84;54.18;96610.94;4968216;28;20436;-70
2023/09/28 08:46:40;;;;;;;12.30;11.00;;;;;;;20.97;53.41;96613.44;4967460;28;20436;-72
2023/09/28 08:49:10;;;;;;;22.40;12.23;;;;;;;21.19;52.90;96605.34;4970598;28;20460;-70
2023/09/28 08:51:37;;;;;;;15.73;10.67;;;;;;;21.23;52.84;96596.09;4971400;28;20846;-69
2023/09/28 08:54:05;;;;;;;36.43;12.00;;;;;;;21.55;51.96;96584.56;4971791;28;20412;-71
2023/09/28 08:56:39;;;;;;;20.10;10.70;;;;;;;22.29;50.61;96578.22;4971931;28;20408;-72
2023/09/28 08:59:05;;;;;;;19.40;11.50;;;;;;;22.65;49.35;96578.56;4971607;28;21311;-70
2023/09/28 09:01:32;;;;;;;15.30;10.53;;;;;;;22.98;48.38;96580.03;4971557;28;21114;-72
2023/09/28 09:03:58;;;;;;;16.93;11.27;;;;;;;23.15;47.78;96578.50;4971082;28;20425;-71
2023/09/28 09:06:24;;;;;;;11.17;9.83;;;;;;;23.23;47.64;96579.50;4970781;28;20417;-72
2023/09/28 09:08:53;;;;;;;13.83;10.70;;;;;;;23.67;46.38;96579.06;4971433;28;20193;-72
2023/09/28 09:11:19;;;;;;;13.00;9.70;;;;;;;23.54;47.19;96573.13;4969656;28;20932;-72
2023/09/28 09:13:53;;;;;;;11.30;10.30;;;;;;;23.58;46.94;96578.06;4970869;28;20412;-69
2023/09/28 09:16:21;;;;;;;12.03;10.83;;;;;;;23.83;46.69;96581.97;4971425;28;20240;-72
2023/09/28 09:18:48;;;;;;;13.70;10.30;;;;;;;23.66;46.81;96580.88;4971588;28;20568;-72
2023/09/28 09:21:13;;;;;;;11.27;10.10;;;;;;;23.85;46.25;96585.34;4962770;28;20424;-72
2023/09/28 09:23:39;;;;;;;12.57;10.10;;;;;;;23.89;46.29;96577.88;4970415;28;20425;-73
2023/09/28 09:26:14;;;;;;;23.83;11.27;;;;;;;24.05;45.97;96575.44;4970156;28;20186;-72
2023/09/28 09:28:43;;;;;;;11.30;9.17;;;;;;;24.02;45.94;96578.38;4970418;28;20201;-71
2023/09/28 09:31:09;;;;;;;10.67;9.37;;;;;;;24.38;45.67;96572.31;4970642;28;20425;-73
2023/09/28 09:33:36;;;;;;;10.40;9.27;;;;;;;24.33;45.91;96563.88;4970328;28;20425;-68
2023/09/28 09:36:02;;;;;;;11.70;8.80;;;;;;;24.24;46.44;96569.16;4969990;28;20220;-71
2023/09/28 09:38:28;;;;;;;10.37;9.27;;;;;;;24.45;45.86;96568.03;4969907;28;20440;-72
2023/09/28 09:41:02;;;;;;;11.83;8.53;;;;;;;24.51;45.40;96564.81;4970347;28;20409;-70
2023/09/28 09:43:35;;;;;;;11.23;9.20;;;;;;;24.47;44.68;96564.28;4970072;28;20442;-70
2023/09/28 09:46:04;;;;;;;11.90;8.63;;;;;;;24.56;44.82;96567.03;4969489;28;21246;-73
2023/09/28 09:48:38;;;;;;;12.83;8.70;;;;;;;24.35;44.67;96556.53;4969419;28;20459;-72
2023/09/28 09:51:07;;;;;;;12.90;7.90;;;;;;;24.42;44.43;96571.88;4969664;28;20783;-70
2023/09/28 09:53:34;;;;;;;15.10;8.83;;;;;;;24.59;43.81;96561.34;4969770;28;20425;-73
2023/09/28 09:56:02;;;;;;;9.40;8.40;;;;;;;24.59;43.61;96566.72;4969125;28;20486;-72
2023/09/28 09:58:37;;;;;;;12.63;8.20;;;;;;;24.58;43.74;96570.41;4968768;28;20517;-70
2023/09/28 10:01:08;;;;;;;11.67;8.43;;;;;;;24.58;43.55;96563.22;4968184;28;20999;-72
2023/09/28 10:03:35;;;;;;;10.30;8.33;;;;;;;24.61;44.00;96573.63;4969334;28;20417;-72
2023/09/28 10:06:01;;;;;;;10.20;8.47;;;;;;;24.67;44.18;96558.78;4968838;28;20416;-72
2023/09/28 10:08:30;;;;;;;7.77;6.97;;;;;;;24.80;43.50;96561.94;4968664;28;20452;-71
2023/09/28 10:10:56;;;;;;;9.33;7.43;;;;;;;24.85;43.52;96566.84;4969233;28;20475;-71
2023/09/28 10:13:21;;;;;;;10.80;7.77;;;;;;;24.96;42.88;96563.94;4969367;28;20428;-72
2023/09/28 10:15:48;;;;;;;10.00;7.20;;;;;;;25.01;42.28;96563.47;4969055;28;20472;-71
2023/09/28 10:18:14;;;;;;;9.50;6.50;;;;;;;25.08;42.27;96564.56;4967444;28;20201;-71
2023/09/28 10:20:40;;;;;;;7.53;6.70;;;;;;;25.08;42.07;96565.41;4967426;28;20421;-71
2023/09/28 10:23:16;;;;;;;13.30;8.20;;;;;;;25.32;41.93;96569.34;4968259;28;20465;-72
2023/09/28 10:25:57;;;;;;;29.40;8.50;;;;;;;25.39;41.74;96570.41;4969099;28;20271;-71
2023/09/28 10:28:22;;;;;;;10.53;6.70;;;;;;;25.39;41.63;96561.50;4969101;28;20499;-71
2023/09/28 10:31:09;;;;;;;21.53;7.47;;;;;;;25.22;41.61;96563.22;4968843;28;20460;-71
2023/09/28 10:33:35;;;;;;;11.90;6.60;;;;;;;24.85;42.38;96558.78;4969501;28;20178;-72
2023/09/28 10:36:14;;;;;;;8.63;6.17;;;;;;;24.93;43.23;96565.09;4969732;28;20424;-70
2023/09/28 10:38:45;;;;;;;10.73;7.03;;;;;;;24.76;43.19;96563.25;4963046;28;20197;-70
2023/09/28 10:41:10;;;;;;;8.60;6.27;;;;;;;24.38;44.43;96558.91;4967161;28;20446;-71
2023/09/28 10:43:41;;;;;;;10.40;6.23;;;;;;;24.63;43.54;96570.81;4968472;28;20533;-72
2023/09/28 10:46:07;;;;;;;8.00;6.57;;;;;;;24.48;43.50;96563.25;4968042;28;20189;-72
2023/09/28 10:48:46;;;;;;;12.97;6.50;;;;;;;24.48;43.94;96565.13;4968415;28;21029;-72
2023/09/28 10:51:12;;;;;;;8.17;6.43;;;;;;;24.19;43.98;96558.03;4968496;28;20800;-71
2023/09/28 10:53:39;;;;;;;7.20;6.20;;;;;;;24.33;43.90;96561.19;4968896;28;20430;-75
2023/09/28 10:56:06;;;;;;;11.33;6.83;;;;;;;23.98;43.35;96563.63;4968401;28;20417;-70
2023/09/28 10:58:34;;;;;;;16.77;5.97;;;;;;;23.75;43.55;96563.13;4967851;28;20467;-71
2023/09/28 11:01:07;;;;;;;12.83;5.67;;;;;;;23.93;42.96;96556.97;4968289;28;20426;-71
2023/09/28 11:03:33;;;;;;;9.83;5.53;;;;;;;24.16;42.06;96552.94;4968285;28;20483;-70
2023/09/28 11:06:03;;;;;;;12.43;5.80;;;;;;;24.43;41.73;96551.28;4968347;28;20997;-71
2023/09/28 11:08:30;;;;;;;8.17;5.60;;;;;;;24.71;41.46;96547.59;4968039;28;20444;-71
2023/09/28 11:10:58;;;;;;;9.63;5.00;;;;;;;25.01;41.03;96560.81;4968513;28;20467;-69
2023/09/28 11:13:25;;;;;;;7.70;5.70;;;;;;;25.24;40.39;96553.16;4968512;28;20413;-72
2023/09/28 11:15:51;;;;;;;7.40;5.13;;;;;;;25.47;40.22;96546.28;4967651;28;20413;-71
2023/09/28 11:18:18;;;;;;;7.67;5.43;;;;;;;25.35;40.85;96542.19;4967945;28;20514;-71
2023/09/28 11:20:43;;;;;;;7.53;4.77;;;;;;;25.37;40.82;96537.50;4968190;28;20166;-72
2023/09/28 11:23:10;;;;;;;11.07;5.40;;;;;;;25.66;38.64;96528.28;4968275;28;20702;-70